Time,TemperatureF,DewpointF,PressureIn,WindDirection,WindDirectionDegrees,WindSpeedMPH,WindSpeedGustMPH,Humidity,HourlyPrecipIn,Conditions,Clouds,dailyrainin,SoftwareType,DateUTC
2013-05-14 00:01:00,47.0,43.0,-100.00,North,-999,0.0,0.0,85,-99.99,,,-99.99,,2013-05-14 07:01:00,
2013-05-14 00:11:00,47.0,43.0,-100.00,SW,225,0.0,1.0,85,-99.99,,,-99.99,,2013-05-14 07:11:00,
2013-05-14 00:21:00,47.0,43.0,-100.00,SW,225,0.0,1.0,85,-99.99,,,-99.99,,2013-05-14 07:21:00,
2013-05-14 00:31:00,48.0,43.0,-100.00,NE,45,1.0,1.0,85,-99.99,,,-99.99,,2013-05-14 07:31:00,
2013-05-14 00:42:00,48.0,43.0,-100.00,NE,45,1.0,1.0,85,-99.99,,,-99.99,,2013-05-14 07:42:00,
2013-05-14 00:52:00,48.0,43.0,-100.00,NW,315,3.0,5.0,83,-99.99,,,-99.99,,2013-05-14 07:52:00,
2013-05-14 01:02:00,48.0,43.0,-100.00,NW,315,3.0,5.0,83,-99.99,,,-99.99,,2013-05-14 08:02:00,
2013-05-14 01:11:00,49.0,41.0,-100.00,North,0,2.0,3.0,74,-99.99,,,-99.99,,2013-05-14 08:11:00,
2013-05-14 01:21:00,50.0,40.0,-100.00,North,0,0.0,1.0,71,-99.99,,,-99.99,,2013-05-14 08:21:00,
2013-05-14 01:31:00,50.0,40.0,-100.00,North,0,0.0,1.0,71,-99.99,,,-99.99,,2013-05-14 08:31:00,
2013-05-14 01:41:00,49.0,40.0,-100.00,North,0,2.0,3.0,72,-99.99,,,-99.99,,2013-05-14 08:41:00,
2013-05-14 01:52:00,49.0,40.0,-100.00,West,270,1.0,3.0,72,-99.99,,,-99.99,,2013-05-14 08:52:00,
2013-05-14 02:01:00,49.0,40.0,-100.00,West,270,1.0,3.0,72,-99.99,,,-99.99,,2013-05-14 09:01:00,
2013-05-14 02:11:00,49.0,40.0,-100.00,North,0,3.0,4.0,70,-99.99,,,-99.99,,2013-05-14 09:11:00,
2013-05-14 02:21:00,49.0,40.0,-100.00,North,0,3.0,4.0,72,-99.99,,,-99.99,,2013-05-14 09:21:00,
2013-05-14 02:32:00,49.0,40.0,-100.00,North,0,3.0,4.0,72,-99.99,,,-99.99,,2013-05-14 09:32:00,
2013-05-14 02:44:00,47.0,39.0,-100.00,NE,45,1.0,2.0,75,-99.99,,,-99.99,,2013-05-14 09:44:00,
2013-05-14 02:54:00,45.0,39.0,-100.00,NE,45,1.0,2.0,78,-99.99,,,-99.99,,2013-05-14 09:54:00,
2013-05-14 03:04:00,45.0,39.0,-100.00,NE,45,1.0,2.0,78,-99.99,,,-99.99,,2013-05-14 10:04:00,
2013-05-14 03:14:00,45.0,39.0,-100.00,North,-999,0.0,0.0,81,-99.99,,,-99.99,,2013-05-14 10:14:00,
2013-05-14 03:25:00,45.0,40.0,-100.00,North,-999,0.0,0.0,83,-99.99,,,-99.99,,2013-05-14 10:25:00,
2013-05-14 03:32:00,45.0,40.0,-100.00,North,-999,0.0,0.0,83,-99.99,,,-99.99,,2013-05-14 10:32:00,
2013-05-14 03:42:00,45.0,40.0,-100.00,North,0,2.0,3.0,84,-99.99,,,-99.99,,2013-05-14 10:42:00,
2013-05-14 03:52:00,46.0,42.0,-100.00,NW,315,0.0,1.0,84,-99.99,,,-99.99,,2013-05-14 10:52:00,
2013-05-14 04:02:00,46.0,42.0,-100.00,NW,315,0.0,1.0,84,-99.99,,,-99.99,,2013-05-14 11:02:00,
2013-05-14 04:11:00,46.0,41.0,-100.00,SW,225,1.0,1.0,84,-99.99,,,-99.99,,2013-05-14 11:11:00,
2013-05-14 04:21:00,45.0,40.0,-100.00,North,-999,0.0,0.0,84,-99.99,,,-99.99,,2013-05-14 11:21:00,
2013-05-14 04:32:00,45.0,40.0,-100.00,North,-999,0.0,0.0,84,-99.99,,,-99.99,,2013-05-14 11:32:00,
2013-05-14 04:43:00,44.0,40.0,-100.00,East,90,0.0,1.0,85,-99.99,,,-99.99,,2013-05-14 11:43:00,
2013-05-14 04:53:00,46.0,42.0,-100.00,West,270,3.0,4.0,86,-99.99,,,-99.99,,2013-05-14 11:53:00,
2013-05-14 05:02:00,46.0,42.0,-100.00,West,270,3.0,4.0,86,-99.99,,,-99.99,,2013-05-14 12:02:00,
2013-05-14 05:12:00,46.0,42.0,-100.00,West,270,1.0,1.0,85,-99.99,,,-99.99,,2013-05-14 12:12:00,
2013-05-14 05:21:00,47.0,42.0,-100.00,NE,45,1.0,2.0,84,-99.99,,,-99.99,,2013-05-14 12:21:00,
2013-05-14 05:32:00,47.0,42.0,-100.00,NE,45,1.0,2.0,84,-99.99,,,-99.99,,2013-05-14 12:32:00,
2013-05-14 05:42:00,46.0,42.0,-100.00,NE,45,2.0,3.0,84,-99.99,,,-99.99,,2013-05-14 12:42:00,
2013-05-14 05:52:00,46.0,41.0,-100.00,North,-999,0.0,0.0,84,-99.99,,,-99.99,,2013-05-14 12:52:00,
2013-05-14 06:01:00,46.0,41.0,-100.00,North,-999,0.0,0.0,84,-99.99,,,-99.99,,2013-05-14 13:01:00,
2013-05-14 06:11:00,47.0,42.0,-100.00,NE,45,2.0,3.0,84,-99.99,,,-99.99,,2013-05-14 13:11:00,
2013-05-14 06:22:00,47.0,42.0,-100.00,NW,315,0.0,1.0,84,-99.99,,,-99.99,,2013-05-14 13:22:00,
2013-05-14 06:32:00,47.0,42.0,-100.00,NW,315,0.0,1.0,84,-99.99,,,-99.99,,2013-05-14 13:32:00,
2013-05-14 06:41:00,46.0,42.0,-100.00,North,0,1.0,2.0,84,-99.99,,,-99.99,,2013-05-14 13:41:00,
2013-05-14 06:52:00,46.0,41.0,-100.00,West,270,1.0,2.0,84,-99.99,,,-99.99,,2013-05-14 13:52:00,
2013-05-14 07:01:00,46.0,41.0,-100.00,West,270,1.0,2.0,84,-99.99,,,-99.99,,2013-05-14 14:01:00,
2013-05-14 07:11:00,44.0,40.0,-100.00,SE,135,0.0,1.0,84,-99.99,,,-99.99,,2013-05-14 14:11:00,
2013-05-14 07:22:00,45.0,41.0,-100.00,NW,315,1.0,3.0,85,-99.99,,,-99.99,,2013-05-14 14:22:00,
2013-05-14 07:31:00,45.0,41.0,-100.00,NW,315,1.0,3.0,85,-99.99,,,-99.99,,2013-05-14 14:31:00,
2013-05-14 07:41:00,47.0,43.0,-100.00,NW,315,3.0,6.0,84,-99.99,,,-99.99,,2013-05-14 14:41:00,
2013-05-14 07:52:00,49.0,42.0,-100.00,North,0,4.0,6.0,78,-99.99,,,-99.99,,2013-05-14 14:52:00,
2013-05-14 08:01:00,49.0,42.0,-100.00,North,0,4.0,6.0,78,-99.99,,,-99.99,,2013-05-14 15:01:00,
2013-05-14 08:12:00,50.0,41.0,-100.00,North,0,3.0,5.0,73,-99.99,,,-99.99,,2013-05-14 15:12:00,
2013-05-14 08:21:00,50.0,41.0,-100.00,NE,45,1.0,1.0,70,-99.99,,,-99.99,,2013-05-14 15:21:00,
2013-05-14 08:32:00,50.0,41.0,-100.00,NE,45,1.0,1.0,70,-99.99,,,-99.99,,2013-05-14 15:32:00,
2013-05-14 08:43:00,52.0,40.0,-100.00,NW,315,3.0,5.0,64,-99.99,,,-99.99,,2013-05-14 15:43:00,
2013-05-14 08:53:00,53.0,40.0,-100.00,North,0,5.0,7.0,61,-99.99,,,-99.99,,2013-05-14 15:53:00,
2013-05-14 09:02:00,53.0,40.0,-100.00,North,0,5.0,7.0,61,-99.99,,,-99.99,,2013-05-14 16:02:00,
2013-05-14 09:12:00,53.0,39.0,-100.00,NE,45,4.0,6.0,58,-99.99,,,-99.99,,2013-05-14 16:12:00,
2013-05-14 09:23:00,54.0,39.0,-100.00,North,0,6.0,9.0,56,-99.99,,,-99.99,,2013-05-14 16:23:00,
2013-05-14 09:33:00,54.0,39.0,-100.00,North,0,6.0,9.0,56,-99.99,,,-99.99,,2013-05-14 16:33:00,
2013-05-14 09:43:00,55.0,38.0,-100.00,NE,45,5.0,9.0,54,-99.99,,,-99.99,,2013-05-14 16:43:00,
2013-05-14 09:54:00,56.0,39.0,-100.00,NW,315,3.0,6.0,53,-99.99,,,-99.99,,2013-05-14 16:54:00,
2013-05-14 10:03:00,56.0,39.0,-100.00,NW,315,3.0,6.0,53,-99.99,,,-99.99,,2013-05-14 17:03:00,
2013-05-14 10:13:00,56.0,38.0,-100.00,North,0,6.0,9.0,50,-99.99,,,-99.99,,2013-05-14 17:13:00,
2013-05-14 10:24:00,56.0,37.0,-100.00,NE,45,4.0,8.0,49,-99.99,,,-99.99,,2013-05-14 17:24:00,
2013-05-14 10:32:00,56.0,37.0,-100.00,NE,45,4.0,8.0,49,-99.99,,,-99.99,,2013-05-14 17:32:00,
2013-05-14 10:43:00,56.0,36.0,-100.00,NW,315,7.0,9.0,47,-99.99,,,-99.99,,2013-05-14 17:43:00,
2013-05-14 10:52:00,58.0,36.0,-100.00,NE,45,3.0,5.0,45,-99.99,,,-99.99,,2013-05-14 17:52:00,
2013-05-14 11:02:00,58.0,36.0,-100.00,NE,45,3.0,5.0,45,-99.99,,,-99.99,,2013-05-14 18:02:00,
2013-05-14 11:12:00,59.0,36.0,-100.00,West,270,3.0,5.0,43,-99.99,,,-99.99,,2013-05-14 18:12:00,
2013-05-14 11:22:00,59.0,34.0,-100.00,North,0,4.0,4.0,40,-99.99,,,-99.99,,2013-05-14 18:22:00,
2013-05-14 11:32:00,59.0,34.0,-100.00,North,0,4.0,4.0,40,-99.99,,,-99.99,,2013-05-14 18:32:00,
2013-05-14 11:42:00,60.0,35.0,-100.00,NE,45,3.0,8.0,39,-99.99,,,-99.99,,2013-05-14 18:42:00,
2013-05-14 11:52:00,61.0,34.0,-100.00,North,0,3.0,6.0,37,-99.99,,,-99.99,,2013-05-14 18:52:00,
2013-05-14 12:01:00,61.0,34.0,-100.00,North,0,3.0,6.0,37,-99.99,,,-99.99,,2013-05-14 19:01:00,
2013-05-14 12:11:00,62.0,33.0,-100.00,North,0,6.0,7.0,33,-99.99,,,-99.99,,2013-05-14 19:11:00,
2013-05-14 12:42:00,62.0,34.0,-100.00,NW,315,2.0,4.0,34,-99.99,,,-99.99,,2013-05-14 19:42:00,
2013-05-14 12:52:00,63.0,33.0,-100.00,SW,225,1.0,2.0,33,-99.99,,,-99.99,,2013-05-14 19:52:00,
2013-05-14 13:02:00,63.0,33.0,-100.00,SW,225,1.0,2.0,33,-99.99,,,-99.99,,2013-05-14 20:02:00,
2013-05-14 13:11:00,64.0,31.0,-100.00,North,0,1.0,2.0,29,-99.99,,,-99.99,,2013-05-14 20:11:00,
2013-05-14 13:22:00,64.0,31.0,-100.00,North,0,6.0,8.0,29,-99.99,,,-99.99,,2013-05-14 20:22:00,
2013-05-14 13:32:00,64.0,31.0,-100.00,North,0,6.0,8.0,29,-99.99,,,-99.99,,2013-05-14 20:32:00,
2013-05-14 13:44:00,65.0,31.0,-100.00,NW,315,5.0,7.0,28,-99.99,,,-99.99,,2013-05-14 20:44:00,
2013-05-14 13:52:00,64.0,31.0,-100.00,NE,45,4.0,6.0,29,-99.99,,,-99.99,,2013-05-14 20:52:00,
2013-05-14 14:03:00,64.0,31.0,-100.00,NE,45,4.0,6.0,29,-99.99,,,-99.99,,2013-05-14 21:03:00,
2013-05-14 14:12:00,65.0,32.0,-100.00,West,270,1.0,1.0,29,-99.99,,,-99.99,,2013-05-14 21:12:00,
2013-05-14 14:22:00,65.0,31.0,-100.00,West,270,3.0,5.0,28,-99.99,,,-99.99,,2013-05-14 21:22:00,
2013-05-14 14:33:00,65.0,31.0,-100.00,West,270,3.0,5.0,28,-99.99,,,-99.99,,2013-05-14 21:33:00,
2013-05-14 14:42:00,65.0,31.0,-100.00,West,270,3.0,5.0,28,-99.99,,,-99.99,,2013-05-14 21:42:00,
2013-05-14 14:53:00,65.0,31.0,-100.00,SW,225,3.0,5.0,28,-99.99,,,-99.99,,2013-05-14 21:53:00,
2013-05-14 15:03:00,65.0,31.0,-100.00,SW,225,3.0,5.0,28,-99.99,,,-99.99,,2013-05-14 22:03:00,
2013-05-14 15:13:00,66.0,30.0,-100.00,NW,315,4.0,7.0,26,-99.99,,,-99.99,,2013-05-14 22:13:00,
2013-05-14 15:24:00,68.0,31.0,-100.00,South,180,0.0,1.0,26,-99.99,,,-99.99,,2013-05-14 22:24:00,
2013-05-14 15:34:00,68.0,31.0,-100.00,South,180,0.0,1.0,26,-99.99,,,-99.99,,2013-05-14 22:34:00,
2013-05-14 15:45:00,68.0,31.0,-100.00,NW,315,4.0,7.0,25,-99.99,,,-99.99,,2013-05-14 22:45:00,
2013-05-14 15:54:00,66.0,30.0,-100.00,NE,45,7.0,9.0,26,-99.99,,,-99.99,,2013-05-14 22:54:00,
2013-05-14 16:03:00,66.0,30.0,-100.00,NE,45,7.0,9.0,26,-99.99,,,-99.99,,2013-05-14 23:03:00,
2013-05-14 16:12:00,68.0,32.0,-100.00,NW,315,4.0,5.0,26,-99.99,,,-99.99,,2013-05-14 23:12:00,
2013-05-14 16:21:00,69.0,31.0,-100.00,SW,225,0.0,1.0,25,-99.99,,,-99.99,,2013-05-14 23:21:00,
2013-05-14 16:31:00,69.0,31.0,-100.00,SW,225,0.0,1.0,25,-99.99,,,-99.99,,2013-05-14 23:31:00,
2013-05-14 16:44:00,69.0,31.0,-100.00,North,0,7.0,8.0,24,-99.99,,,-99.99,,2013-05-14 23:44:00,
2013-05-14 16:52:00,70.0,31.0,-100.00,South,180,0.0,2.0,24,-99.99,,,-99.99,,2013-05-14 23:52:00,
2013-05-14 17:01:00,70.0,31.0,-100.00,South,180,0.0,2.0,24,-99.99,,,-99.99,,2013-05-15 00:01:00,
2013-05-14 17:11:00,69.0,31.0,-100.00,North,0,3.0,4.0,24,-99.99,,,-99.99,,2013-05-15 00:11:00,
2013-05-14 17:21:00,69.0,31.0,-100.00,South,180,4.0,5.0,24,-99.99,,,-99.99,,2013-05-15 00:21:00,
2013-05-14 17:32:00,69.0,31.0,-100.00,South,180,4.0,5.0,24,-99.99,,,-99.99,,2013-05-15 00:32:00,
2013-05-14 17:41:00,69.0,31.0,-100.00,South,180,4.0,5.0,24,-99.99,,,-99.99,,2013-05-15 00:41:00,
2013-05-14 17:52:00,69.0,29.0,-100.00,West,270,2.0,3.0,22,-99.99,,,-99.99,,2013-05-15 00:52:00,
2013-05-14 18:01:00,69.0,29.0,-100.00,West,270,2.0,3.0,22,-99.99,,,-99.99,,2013-05-15 01:01:00,
2013-05-14 18:11:00,69.0,29.0,-100.00,West,270,4.0,5.0,22,-99.99,,,-99.99,,2013-05-15 01:11:00,
2013-05-14 18:21:00,70.0,29.0,-100.00,NW,315,4.0,5.0,22,-99.99,,,-99.99,,2013-05-15 01:21:00,
2013-05-14 18:31:00,70.0,29.0,-100.00,NW,315,4.0,5.0,22,-99.99,,,-99.99,,2013-05-15 01:31:00,
2013-05-14 18:42:00,68.0,29.0,-100.00,North,0,3.0,5.0,23,-99.99,,,-99.99,,2013-05-15 01:42:00,
2013-05-14 18:52:00,68.0,30.0,-100.00,NE,45,3.0,6.0,24,-99.99,,,-99.99,,2013-05-15 01:52:00,
2013-05-14 19:01:00,68.0,30.0,-100.00,NE,45,3.0,6.0,24,-99.99,,,-99.99,,2013-05-15 02:01:00,
2013-05-14 19:11:00,68.0,30.0,-100.00,North,0,2.0,4.0,24,-99.99,,,-99.99,,2013-05-15 02:11:00,
2013-05-14 19:21:00,68.0,30.0,-100.00,North,0,4.0,6.0,24,-99.99,,,-99.99,,2013-05-15 02:21:00,
2013-05-14 19:31:00,68.0,30.0,-100.00,North,0,4.0,6.0,24,-99.99,,,-99.99,,2013-05-15 02:31:00,
2013-05-14 19:42:00,68.0,31.0,-100.00,North,0,1.0,3.0,25,-99.99,,,-99.99,,2013-05-15 02:42:00,
2013-05-14 19:52:00,66.0,31.0,-100.00,NE,45,1.0,1.0,27,-99.99,,,-99.99,,2013-05-15 02:52:00,
2013-05-14 20:01:00,66.0,31.0,-100.00,NE,45,1.0,1.0,27,-99.99,,,-99.99,,2013-05-15 03:01:00,
2013-05-14 20:12:00,67.0,32.0,-100.00,NW,315,1.0,2.0,27,-99.99,,,-99.99,,2013-05-15 03:12:00,
2013-05-14 20:21:00,66.0,32.0,-100.00,North,0,1.0,3.0,28,-99.99,,,-99.99,,2013-05-15 03:21:00,
2013-05-14 20:33:00,66.0,32.0,-100.00,North,0,1.0,3.0,28,-99.99,,,-99.99,,2013-05-15 03:33:00,
2013-05-14 20:44:00,63.0,33.0,-100.00,SW,225,3.0,8.0,32,-99.99,,,-99.99,,2013-05-15 03:44:00,
2013-05-14 20:54:00,60.0,34.0,-100.00,West,270,5.0,7.0,37,-99.99,,,-99.99,,2013-05-15 03:54:00,
2013-05-14 21:03:00,60.0,34.0,-100.00,West,270,5.0,7.0,37,-99.99,,,-99.99,,2013-05-15 04:03:00,
2013-05-14 21:12:00,59.0,35.0,-100.00,NW,315,5.0,7.0,41,-99.99,,,-99.99,,2013-05-15 04:12:00,
2013-05-14 21:23:00,58.0,35.0,-100.00,West,270,4.0,5.0,42,-99.99,,,-99.99,,2013-05-15 04:23:00,
2013-05-14 21:33:00,58.0,35.0,-100.00,West,270,4.0,5.0,42,-99.99,,,-99.99,,2013-05-15 04:33:00,
2013-05-14 21:42:00,57.0,34.0,-100.00,NW,315,6.0,9.0,42,-99.99,,,-99.99,,2013-05-15 04:42:00,
2013-05-14 21:52:00,56.0,33.0,-100.00,West,270,4.0,8.0,41,-99.99,,,-99.99,,2013-05-15 04:52:00,
2013-05-14 22:02:00,56.0,33.0,-100.00,West,270,4.0,8.0,41,-99.99,,,-99.99,,2013-05-15 05:02:00,
2013-05-14 22:12:00,55.0,32.0,-100.00,SW,225,3.0,5.0,41,-99.99,,,-99.99,,2013-05-15 05:12:00,
2013-05-14 22:42:00,53.0,32.0,-100.00,North,-999,0.0,0.0,44,-99.99,,,-99.99,,2013-05-15 05:42:00,
2013-05-14 22:52:00,52.0,32.0,-100.00,South,180,1.0,1.0,47,-99.99,,,-99.99,,2013-05-15 05:52:00,
2013-05-14 23:02:00,52.0,32.0,-100.00,South,180,1.0,1.0,47,-99.99,,,-99.99,,2013-05-15 06:02:00,
2013-05-14 23:11:00,51.0,32.0,-100.00,SW,225,3.0,4.0,48,-99.99,,,-99.99,,2013-05-15 06:11:00,
2013-05-14 23:21:00,51.0,32.0,-100.00,South,180,1.0,2.0,48,-99.99,,,-99.99,,2013-05-15 06:21:00,
2013-05-14 23:31:00,50.0,32.0,-100.00,SW,225,1.0,3.0,51,-99.99,,,-99.99,,2013-05-15 06:31:00,
2013-05-14 23:41:00,50.0,32.0,-100.00,SW,225,1.0,3.0,51,-99.99,,,-99.99,,2013-05-15 06:41:00,
2013-05-14 23:52:00,50.0,33.0,-100.00,SW,225,1.0,1.0,53,-99.99,,,-99.99,,2013-05-15 06:52:00,